createdAt,value
2024-01-12T00:00:17.960Z,0.95
2024-01-12T00:03:20.330Z,0.97
2024-01-12T00:06:22.832Z,0.73
2024-01-12T00:09:25.300Z,0.93
2024-01-12T00:12:27.656Z,0.64
2024-01-12T00:15:30.079Z,0.75
2024-01-12T00:18:32.616Z,0.74
2024-01-12T00:21:35.088Z,0.56
2024-01-12T00:24:37.465Z,0.35
2024-01-12T00:27:39.937Z,0.57
2024-01-12T00:30:42.790Z,0.62
2024-01-12T00:33:45.413Z,0.67
2024-01-12T00:36:49.324Z,0.67
2024-01-12T00:39:51.734Z,0.52
2024-01-12T00:42:54.148Z,0.66
2024-01-12T00:45:56.621Z,0.81
2024-01-12T00:48:59.423Z,0.84
2024-01-12T00:52:02.141Z,0.73
2024-01-12T00:55:04.981Z,0.64
2024-01-12T00:58:07.369Z,0.73
2024-01-12T01:01:10.918Z,0.24
2024-01-12T01:04:13.587Z,0.37
2024-01-12T01:07:16.123Z,0.75
2024-01-12T01:10:18.517Z,0.74
2024-01-12T01:13:21.003Z,0.69
2024-01-12T01:16:25.072Z,0.28
2024-01-12T01:19:27.620Z,0.14
2024-01-12T01:22:32.896Z,0.26
2024-01-12T01:25:37.103Z,0.16
2024-01-12T01:28:39.583Z,0.22
2024-01-12T01:31:41.998Z,0.22
2024-01-12T01:34:44.938Z,0.09
2024-01-12T01:37:47.455Z,0.22
2024-01-12T01:40:49.928Z,0.34
2024-01-12T01:43:52.490Z,0.17
2024-01-12T01:47:00.204Z,0.20
2024-01-12T01:50:03.127Z,0.40
2024-01-12T01:53:06.220Z,-0.12
2024-01-12T01:56:10.830Z,0.08
2024-01-12T01:59:13.875Z,0.32
2024-01-12T02:02:16.738Z,0.19
2024-01-12T02:05:19.958Z,0.27
2024-01-12T02:08:22.591Z,0.19
2024-01-12T02:11:25.042Z,0.20
2024-01-12T02:14:27.531Z,0.38
2024-01-12T02:17:30.059Z,0.20
2024-01-12T02:20:32.561Z,-0.25
2024-01-12T02:23:35.092Z,0.00
2024-01-12T02:26:37.664Z,0.10
2024-01-12T02:29:40.296Z,0.22
2024-01-12T02:32:42.748Z,-0.14
2024-01-12T02:35:45.443Z,-0.11
2024-01-12T02:38:51.396Z,-0.15
2024-01-12T02:41:58.522Z,-0.29
2024-01-12T02:45:01.054Z,-0.16
2024-01-12T02:48:04.112Z,-0.14
2024-01-12T02:51:07.719Z,-0.61
2024-01-12T02:54:10.228Z,-0.57
2024-01-12T02:57:13.709Z,-0.80
2024-01-12T03:00:16.520Z,-0.66
2024-01-12T03:03:20.010Z,-0.76
2024-01-12T03:06:22.714Z,-0.81
2024-01-12T03:09:25.153Z,-0.92
2024-01-12T03:12:27.585Z,-0.79
2024-01-12T03:15:30.535Z,-1.19
2024-01-12T03:18:33.519Z,-1.03
2024-01-12T03:21:36.108Z,-1.10
2024-01-12T03:24:38.543Z,-1.20
2024-01-12T03:27:41.019Z,-1.53
2024-01-12T03:30:43.467Z,-1.29
2024-01-12T03:33:46.082Z,-1.47
2024-01-12T03:36:48.655Z,-1.46
2024-01-12T03:39:51.336Z,-1.28
2024-01-12T03:42:53.772Z,-1.50
2024-01-12T03:45:56.167Z,-1.67
2024-01-12T03:48:58.686Z,-1.98
2024-01-12T03:52:14.571Z,-2.03
2024-01-12T03:55:18.813Z,-2.09
2024-01-12T03:58:21.222Z,-2.01
2024-01-12T04:01:24.306Z,-2.17
2024-01-12T04:04:26.908Z,-2.13
2024-01-12T04:07:29.312Z,-2.41
2024-01-12T04:10:31.895Z,-2.19
2024-01-12T04:13:34.323Z,-2.62
2024-01-12T04:16:36.829Z,-2.61
2024-01-12T04:19:39.339Z,-2.38
2024-01-12T04:22:41.860Z,-1.63
2024-01-12T04:25:44.349Z,-1.37
2024-01-12T04:28:47.064Z,-1.38
2024-01-12T04:31:49.617Z,-1.44
2024-01-12T04:34:52.095Z,-1.30
2024-01-12T04:37:54.558Z,-1.23
2024-01-12T04:40:56.982Z,-0.58
2024-01-12T04:43:59.569Z,-1.02
2024-01-12T04:47:01.958Z,-0.91
2024-01-12T04:50:04.668Z,0.33
2024-01-12T04:53:07.606Z,0.50
2024-01-12T04:56:10.029Z,0.69
2024-01-12T04:59:12.474Z,0.95
2024-01-12T05:02:15.006Z,1.17
2024-01-12T05:05:17.497Z,0.62
2024-01-12T05:08:20.016Z,0.68
2024-01-12T05:11:23.504Z,0.89
2024-01-12T05:14:27.440Z,0.86
2024-01-12T05:17:29.927Z,0.70
2024-01-12T05:20:32.394Z,1.16
2024-01-12T05:23:34.989Z,1.28
2024-01-12T05:26:37.823Z,1.48
2024-01-12T05:29:40.315Z,1.76
2024-01-12T05:32:42.897Z,2.11
2024-01-12T05:35:45.699Z,2.13
2024-01-12T05:38:48.206Z,2.29
2024-01-12T05:41:50.779Z,2.20
2024-01-12T05:44:53.241Z,2.30
2024-01-12T05:47:56.043Z,2.46
2024-01-12T05:50:58.580Z,2.45
2024-01-12T05:54:01.101Z,2.31
2024-01-12T05:57:03.969Z,2.51
2024-01-12T06:00:09.174Z,2.77
2024-01-12T06:03:11.740Z,3.35
2024-01-12T06:06:14.370Z,3.25
2024-01-12T06:09:16.916Z,3.42
2024-01-12T06:12:19.333Z,3.09
2024-01-12T06:15:21.961Z,3.03
2024-01-12T06:18:24.612Z,2.41
2024-01-12T06:21:27.353Z,2.63
2024-01-12T06:24:29.821Z,3.41
2024-01-12T06:27:32.234Z,3.35
2024-01-12T06:30:34.670Z,3.63
2024-01-12T06:33:37.103Z,3.50
2024-01-12T06:36:45.480Z,2.63
2024-01-12T06:39:48.040Z,1.04
2024-01-12T06:42:50.472Z,1.06
2024-01-12T06:45:52.856Z,1.08
2024-01-12T06:48:55.286Z,0.79
2024-01-12T06:51:57.761Z,0.70
2024-01-12T06:55:00.606Z,0.68
2024-01-12T06:58:03.163Z,0.90
2024-01-12T07:01:05.645Z,1.22
2024-01-12T07:04:08.654Z,2.27
2024-01-12T07:07:12.061Z,2.45
2024-01-12T07:10:14.588Z,2.09
2024-01-12T07:13:17.005Z,2.01
2024-01-12T07:16:19.378Z,1.49
2024-01-12T07:19:21.968Z,1.87
2024-01-12T07:22:24.425Z,1.81
2024-01-12T07:25:26.854Z,1.84
2024-01-12T07:28:29.376Z,4.56
2024-01-12T07:31:32.412Z,6.78
2024-01-12T07:34:34.907Z,7.93
2024-01-12T07:37:38.072Z,9.55
2024-01-12T07:40:40.540Z,10.21
2024-01-12T07:43:43.009Z,11.63
2024-01-12T07:46:45.431Z,10.47
2024-01-12T07:49:49.020Z,9.84
2024-01-12T07:52:51.876Z,8.99
2024-01-12T07:55:54.847Z,8.39
2024-01-12T07:58:59.026Z,9.43
2024-01-12T08:02:02.590Z,7.45
2024-01-12T08:05:09.570Z,8.33
2024-01-12T08:08:12.323Z,11.48
2024-01-12T08:11:26.685Z,11.87
2024-01-12T08:14:34.452Z,13.37
2024-01-12T08:17:40.717Z,12.69
2024-01-12T08:20:43.745Z,8.37
2024-01-12T08:23:46.223Z,9.26
2024-01-12T08:26:49.155Z,12.86
2024-01-12T08:29:51.814Z,15.45
2024-01-12T08:32:54.392Z,14.89
2024-01-12T08:35:56.899Z,8.28
2024-01-12T08:38:59.355Z,6.89
2024-01-12T08:42:01.898Z,7.06
2024-01-12T08:45:05.613Z,6.74
2024-01-12T08:48:08.271Z,6.80
2024-01-12T08:51:11.526Z,6.71
2024-01-12T08:54:14.222Z,6.57
2024-01-12T08:57:16.788Z,7.08
2024-01-12T09:00:19.417Z,6.12
2024-01-12T09:03:21.910Z,6.00
2024-01-12T09:06:25.249Z,6.56
2024-01-12T09:09:27.933Z,5.83
2024-01-12T09:12:30.473Z,5.81
2024-01-12T09:15:36.332Z,5.81
2024-01-12T09:18:39.117Z,5.47
2024-01-12T09:21:42.251Z,5.58
2024-01-12T09:24:44.720Z,5.80
2024-01-12T09:27:47.272Z,6.19
2024-01-12T09:30:49.824Z,5.79
2024-01-12T09:33:54.302Z,5.93
2024-01-12T09:36:56.862Z,6.31
2024-01-12T09:39:59.257Z,6.22
2024-01-12T09:43:02.334Z,6.06
2024-01-12T09:46:09.496Z,5.74
2024-01-12T09:49:12.006Z,5.77
2024-01-12T09:52:14.626Z,6.00
2024-01-12T09:55:17.047Z,5.98
2024-01-12T09:58:22.697Z,5.76
2024-01-12T10:01:25.377Z,5.54
2024-01-12T10:04:28.337Z,5.82
2024-01-12T10:07:31.077Z,5.93
2024-01-12T10:10:33.520Z,5.80
2024-01-12T10:13:35.994Z,5.59
2024-01-12T10:16:40.555Z,5.80
2024-01-12T10:19:43.781Z,5.98
2024-01-12T10:22:46.343Z,5.66
2024-01-12T10:26:10.692Z,5.50
2024-01-12T10:29:15.014Z,5.51
2024-01-12T10:32:21.018Z,5.62
2024-01-12T10:35:23.735Z,5.97
2024-01-12T10:38:30.158Z,6.24
2024-01-12T10:41:34.454Z,5.48
2024-01-12T10:44:40.375Z,5.83
2024-01-12T10:47:48.591Z,6.30
2024-01-12T10:51:00.928Z,6.37
2024-01-12T10:54:14.241Z,6.27
2024-01-12T10:57:17.743Z,6.52
2024-01-12T11:00:21.306Z,6.75
2024-01-12T11:03:25.087Z,6.39
2024-01-12T11:06:29.438Z,6.98
2024-01-12T11:09:32.012Z,6.36
2024-01-12T11:12:39.120Z,5.62
2024-01-12T11:15:42.141Z,5.07
2024-01-12T11:18:44.765Z,4.65
2024-01-12T11:21:47.252Z,4.85
2024-01-12T11:24:49.805Z,5.00
2024-01-12T11:27:53.201Z,4.88
2024-01-12T11:30:55.792Z,5.10
2024-01-12T11:34:00.633Z,5.43
2024-01-12T11:37:03.920Z,6.03
2024-01-12T11:40:11.987Z,6.10
2024-01-12T11:43:20.519Z,5.88
2024-01-12T11:46:25.232Z,5.77
2024-01-12T11:49:27.752Z,5.85
2024-01-12T11:52:30.250Z,5.68
2024-01-12T11:55:33.869Z,5.61
2024-01-12T11:58:38.344Z,5.87
2024-01-12T12:01:40.810Z,5.44
2024-01-12T12:04:43.786Z,5.63
2024-01-12T12:07:47.400Z,5.37
2024-01-12T12:10:49.828Z,5.54
2024-01-12T12:13:54.428Z,5.64
2024-01-12T12:16:56.826Z,5.73
2024-01-12T12:19:59.457Z,5.52
2024-01-12T12:23:01.972Z,5.20
2024-01-12T12:26:06.047Z,5.07
2024-01-12T12:29:10.526Z,4.95
2024-01-12T12:32:13.911Z,4.90
2024-01-12T12:35:20.877Z,5.26
2024-01-12T12:38:23.698Z,5.42
2024-01-12T12:41:26.214Z,6.09
2024-01-12T12:44:28.740Z,6.19
2024-01-12T12:47:32.083Z,5.92
2024-01-12T12:50:34.879Z,5.84
2024-01-12T12:53:37.328Z,5.19
2024-01-12T12:56:41.056Z,5.13
2024-01-12T12:59:44.911Z,4.88
2024-01-12T13:02:47.452Z,4.47
2024-01-12T13:05:49.943Z,4.47
2024-01-12T13:08:52.479Z,4.48
2024-01-12T13:11:55.215Z,4.43
2024-01-12T13:14:57.702Z,4.69
2024-01-12T13:18:00.506Z,4.63
2024-01-12T13:21:03.702Z,4.60
2024-01-12T13:24:06.547Z,4.51
2024-01-12T13:27:09.164Z,4.55
2024-01-12T13:30:12.281Z,4.67
2024-01-12T13:33:16.256Z,4.59
2024-01-12T13:36:19.556Z,4.40
2024-01-12T13:39:22.586Z,4.17
2024-01-12T13:42:25.388Z,4.14
2024-01-12T13:45:27.947Z,4.14
2024-01-12T13:48:31.195Z,4.01
2024-01-12T13:51:34.993Z,3.75
2024-01-12T13:54:37.528Z,3.69
2024-01-12T13:57:39.948Z,3.63
2024-01-12T14:00:42.363Z,3.76
2024-01-12T14:03:47.880Z,3.81
2024-01-12T14:06:50.555Z,3.84
2024-01-12T14:09:53.288Z,3.27
2024-01-12T14:12:55.779Z,3.32
2024-01-12T14:15:59.089Z,2.94
2024-01-12T14:19:01.690Z,3.16
2024-01-12T14:22:04.423Z,3.31
2024-01-12T14:25:07.596Z,3.32
2024-01-12T14:28:20.343Z,3.39
2024-01-12T14:31:31.253Z,2.93
2024-01-12T14:34:33.912Z,2.98
2024-01-12T14:37:36.459Z,2.64
2024-01-12T14:40:38.814Z,2.84
2024-01-12T14:43:41.216Z,2.69
2024-01-12T14:46:43.712Z,2.93
2024-01-12T14:49:47.048Z,2.82
2024-01-12T14:52:49.976Z,3.11
2024-01-12T14:55:52.510Z,2.88
2024-01-12T14:58:55.282Z,2.63
2024-01-12T15:01:57.750Z,2.88
2024-01-12T15:05:00.282Z,3.30
2024-01-12T15:08:04.613Z,3.44
2024-01-12T15:11:07.511Z,3.17
2024-01-12T15:14:10.349Z,3.00
2024-01-12T15:17:12.989Z,2.69
2024-01-12T15:20:16.006Z,2.58
2024-01-12T15:23:18.521Z,2.57
2024-01-12T15:26:20.914Z,2.56
2024-01-12T15:29:23.399Z,2.44
2024-01-12T15:32:25.945Z,2.44
2024-01-12T15:35:29.446Z,2.75
2024-01-12T15:38:32.255Z,2.80
2024-01-12T15:41:34.763Z,2.85
2024-01-12T15:44:37.227Z,2.79
2024-01-12T15:47:39.895Z,2.74
2024-01-12T15:50:43.120Z,2.94
2024-01-12T15:53:45.572Z,2.94
2024-01-12T15:56:48.156Z,2.88
2024-01-12T15:59:50.791Z,2.62
2024-01-12T16:02:53.302Z,2.56
2024-01-12T16:05:56.180Z,1.93
2024-01-12T16:08:58.759Z,2.06
2024-01-12T16:12:01.299Z,2.03
2024-01-12T16:15:07.496Z,1.77
2024-01-12T16:18:10.214Z,1.58
2024-01-12T16:21:31.614Z,1.62
2024-01-12T16:24:34.086Z,1.50
2024-01-12T16:27:36.501Z,1.62
2024-01-12T16:30:39.094Z,1.40
2024-01-12T16:33:41.685Z,1.43
2024-01-12T16:36:44.166Z,1.40
2024-01-12T16:39:46.610Z,1.46
2024-01-12T16:42:49.000Z,1.49
2024-01-12T16:45:51.414Z,1.49
2024-01-12T16:48:53.919Z,1.47
2024-01-12T16:51:56.363Z,1.30
2024-01-12T16:55:04.044Z,1.33
2024-01-12T16:58:06.693Z,1.28
2024-01-12T17:01:09.213Z,1.25
2024-01-12T17:04:11.777Z,1.08
2024-01-12T17:07:14.201Z,1.08
2024-01-12T17:10:16.803Z,0.90
2024-01-12T17:13:19.238Z,0.70
2024-01-12T17:16:35.083Z,0.87
2024-01-12T17:19:37.627Z,0.97
2024-01-12T17:22:40.123Z,0.98
2024-01-12T17:25:42.546Z,1.01
2024-01-12T17:28:44.924Z,1.26
2024-01-12T17:31:51.528Z,1.23
2024-01-12T17:34:54.270Z,1.58
2024-01-12T17:37:57.588Z,1.76
2024-01-12T17:41:00.530Z,1.75
2024-01-12T17:44:03.246Z,1.88
2024-01-12T17:47:05.697Z,1.91
2024-01-12T17:50:09.252Z,1.92
2024-01-12T17:53:11.688Z,1.90
2024-01-12T17:56:14.465Z,1.82
2024-01-12T17:59:16.907Z,1.94
2024-01-12T18:02:19.857Z,1.92
2024-01-12T18:05:22.665Z,2.15
2024-01-12T18:08:25.443Z,2.12
2024-01-12T18:11:27.991Z,2.20
2024-01-12T18:14:30.615Z,2.00
2024-01-12T18:17:33.334Z,1.88
2024-01-12T18:20:35.846Z,1.90
2024-01-12T18:23:38.258Z,2.02
2024-01-12T18:26:40.666Z,2.13
2024-01-12T18:29:43.857Z,2.52
2024-01-12T18:32:46.873Z,2.00
2024-01-12T18:35:50.194Z,1.83
2024-01-12T18:38:53.097Z,1.60
2024-01-12T18:41:55.843Z,1.49
2024-01-12T18:44:58.752Z,1.24
2024-01-12T18:48:01.737Z,0.96
2024-01-12T18:51:04.816Z,1.15
2024-01-12T18:54:10.296Z,1.18
2024-01-12T18:57:13.684Z,0.98
2024-01-12T19:00:16.732Z,1.02
2024-01-12T19:03:19.478Z,0.83
2024-01-12T19:06:22.141Z,0.49
2024-01-12T19:09:24.658Z,0.35
2024-01-12T19:12:27.364Z,0.49
2024-01-12T19:15:30.126Z,0.22
2024-01-12T19:18:32.749Z,0.40
2024-01-12T19:21:35.332Z,0.33
2024-01-12T19:24:42.667Z,0.20
2024-01-12T19:27:45.121Z,-0.09
2024-01-12T19:30:47.524Z,-0.13
2024-01-12T19:33:53.881Z,0.35
2024-01-12T19:36:56.419Z,0.10
2024-01-12T19:39:59.816Z,-0.01
2024-01-12T19:43:02.261Z,0.33
2024-01-12T19:46:05.285Z,-0.02
2024-01-12T19:49:07.867Z,-0.38
2024-01-12T19:52:10.568Z,-0.49
2024-01-12T19:55:13.884Z,-0.69
2024-01-12T19:58:17.328Z,-0.54
2024-01-12T20:01:19.999Z,-0.25
2024-01-12T20:04:29.737Z,-0.41
2024-01-12T20:07:40.245Z,-0.15
2024-01-12T20:10:43.005Z,-0.24
2024-01-12T20:13:45.933Z,-0.29
2024-01-12T20:16:48.771Z,-0.30
2024-01-12T20:19:51.996Z,-0.46
2024-01-12T20:22:54.666Z,-0.33
2024-01-12T20:25:57.092Z,-0.03
2024-01-12T20:28:59.787Z,0.01
2024-01-12T20:32:02.752Z,0.00
2024-01-12T20:35:05.520Z,-0.52
2024-01-12T20:38:07.972Z,-0.32
2024-01-12T20:41:10.644Z,-0.36
2024-01-12T20:44:13.930Z,-0.34
2024-01-12T20:47:16.485Z,-0.62
2024-01-12T20:50:18.948Z,-0.04
2024-01-12T20:53:22.375Z,-0.33
2024-01-12T20:56:24.910Z,-0.63
2024-01-12T20:59:29.744Z,-0.95
2024-01-12T21:02:33.865Z,-1.09
2024-01-12T21:05:36.659Z,-1.12
2024-01-12T21:08:39.278Z,-0.85
2024-01-12T21:11:42.458Z,-1.05
2024-01-12T21:14:45.021Z,-1.14
2024-01-12T21:17:48.777Z,-1.18
2024-01-12T21:20:51.756Z,-1.19
2024-01-12T21:23:54.528Z,-1.10
2024-01-12T21:26:57.070Z,-1.41
2024-01-12T21:30:00.674Z,-1.49
2024-01-12T21:33:03.500Z,-1.63
2024-01-12T21:36:06.365Z,-1.50
2024-01-12T21:39:10.209Z,-1.51
2024-01-12T21:42:13.463Z,-1.14
2024-01-12T21:45:16.651Z,-1.15
2024-01-12T21:48:19.250Z,-1.05
2024-01-12T21:51:21.831Z,-0.63
2024-01-12T21:54:24.257Z,-0.48
2024-01-12T21:57:27.241Z,-0.50
2024-01-12T22:00:29.628Z,-0.20
2024-01-12T22:03:32.213Z,0.17
2024-01-12T22:06:34.728Z,0.14
2024-01-12T22:09:37.238Z,0.07
2024-01-12T22:12:39.674Z,-0.13
2024-01-12T22:15:42.135Z,0.04
2024-01-12T22:18:44.899Z,0.05
2024-01-12T22:21:47.473Z,-0.07
2024-01-12T22:24:49.849Z,0.16
2024-01-12T22:27:52.281Z,0.21
2024-01-12T22:30:54.694Z,-0.16
2024-01-12T22:33:57.258Z,-0.41
2024-01-12T22:36:59.802Z,-0.46
2024-01-12T22:40:02.608Z,-0.46
2024-01-12T22:43:05.400Z,-0.13
2024-01-12T22:46:07.951Z,-0.27
2024-01-12T22:49:12.181Z,-0.79
2024-01-12T22:52:14.949Z,-0.99
2024-01-12T22:55:17.419Z,-0.90
2024-01-12T22:58:20.505Z,-0.93
2024-01-12T23:01:22.889Z,-1.09
2024-01-12T23:04:25.325Z,-0.84
2024-01-12T23:07:27.782Z,-1.07
2024-01-12T23:10:30.207Z,-1.04
2024-01-12T23:13:32.601Z,-1.20
2024-01-12T23:16:35.025Z,-1.14
2024-01-12T23:19:37.499Z,-1.34
2024-01-12T23:22:43.332Z,-1.29
2024-01-12T23:25:46.039Z,-1.14
2024-01-12T23:28:48.625Z,-1.18
2024-01-12T23:31:51.181Z,-0.93
2024-01-12T23:34:53.804Z,-1.24
2024-01-12T23:37:56.343Z,-1.13
2024-01-12T23:40:58.730Z,-1.01
2024-01-12T23:44:02.099Z,-1.18
2024-01-12T23:47:04.762Z,-1.27
2024-01-12T23:50:07.668Z,-1.45
2024-01-12T23:53:10.158Z,-1.50
2024-01-12T23:56:12.536Z,-1.15
2024-01-12T23:59:14.989Z,-1.34
